Stations météo

réclame
Mon MeteoGroup
Punta Galea Golf, Espagne (8059): Température de l'air & dewpoint: 16.06.2018 19:00:00 - 22.06.2018 19:00:00 (CEST)Punta Galea Golf, Espagne (8059): Vitesse du vent & gusts: 16.06.2018 19:00:00 - 22.06.2018 19:00:00 (CEST)Punta Galea Golf, Espagne (8059): Direction du vent: 16.06.2018 19:00:00 - 22.06.2018 19:00:00 (CEST)Punta Galea Golf, Espagne (8059): reduced air pressure: 16.06.2018 19:00:00 - 22.06.2018 19:00:00 (CEST)Punta Galea Golf, Espagne (8059): Quantités de précipitations: 16.06.2018 19:00:00 - 22.06.2018 19:00:00 (CEST)
Date & Time tt [°C] td [°C] ff [km/h] ff [knt] fx [km/h] fx [knt] dd ppp [hPa] rr [mm]
22.06.2018 19:00:00 - - - - - - - - -
22.06.2018 18:00:00 20,1 16,9 12 6 20 11 NNE 1023,3 0,0
22.06.2018 17:00:00 20,3 16,9 13 7 23 13 NNE 1023,1 0,0
22.06.2018 16:00:00 20,5 17,1 12 7 21 12 NE 1023,6 0,0
22.06.2018 15:00:00 21,5 18,7 12 7 22 12 NNE 1023,5 0,0
22.06.2018 14:00:00 20,2 17,9 13 7 19 11 NNE 1023,5 -
22.06.2018 13:00:00 20,5 18,5 9 5 16 9 NE 1024,0 0,0
22.06.2018 12:00:00 20,3 19,3 5 3 19 10 NW 1023,9 0,0
22.06.2018 11:00:00 19,2 18,4 10 5 18 10 WNW 1023,5 0,0
22.06.2018 10:00:00 18,8 18,2 11 6 20 11 WNW 1023,6 0,0
22.06.2018 09:00:00 18,7 17,9 14 7 21 12 WNW 1023,3 0,0
22.06.2018 08:00:00 18,4 17,8 10 6 22 12 WNW 1023,2 -
22.06.2018 07:00:00 18,4 17,8 10 5 19 10 NW 1022,7 0,0
22.06.2018 06:00:00 18,2 17,5 9 5 17 9 WNW 1023,1 0,0
22.06.2018 05:00:00 18,4 17,8 11 6 19 11 WNW 1023,0 0,0
22.06.2018 04:00:00 18,4 17,8 8 5 18 10 NW 1023,2 0,0
22.06.2018 03:00:00 18,7 18,1 9 5 16 9 WNW 1023,5 0,0
22.06.2018 02:00:00 18,7 18,1 10 5 16 9 WNW 1023,5 -
22.06.2018 01:00:00 18,8 18,2 8 4 16 8 WNW 1024,0 0,0
22.06.2018 00:00:00 18,9 18,2 7 4 13 7 WNW 1024,0 0,0
21.06.2018 23:00:00 19,0 18,3 8 4 25 14 NW 1023,8 0,0
21.06.2018 22:00:00 18,8 18,2 15 8 25 13 WNW 1023,1 0,0
21.06.2018 21:00:00 19,1 18,5 14 8 24 13 WNW 1022,7 0,0
21.06.2018 20:00:00 19,6 18,8 13 7 27 15 WNW 1022,8 -
21.06.2018 19:00:00 21,1 19,8 7 4 21 12 NW 1022,0 0,0
21.06.2018 18:00:00 20,6 18,9 8 4 19 10 NW 1022,2 0,0
21.06.2018 17:00:00 20,8 18,9 10 5 22 12 WNW 1022,1 0,0
21.06.2018 16:00:00 20,3 19,0 13 7 25 14 NW 1022,2 0,0
21.06.2018 15:00:00 19,8 18,5 14 7 26 14 NW 1022,5 0,0
21.06.2018 14:00:00 20,1 18,6 12 7 23 13 NW 1022,5 -
21.06.2018 13:00:00 19,6 18,6 12 7 23 12 NW 1022,4 0,0
21.06.2018 12:00:00 19,6 18,6 8 5 14 8 WNW 1022,3 0,0
21.06.2018 11:00:00 20,0 19,2 4 2 8 5 NNW 1021,7 0,0
21.06.2018 10:00:00 19,5 18,7 4 2 9 5 N 1021,5 0,0
21.06.2018 09:00:00 19,7 18,9 1 1 7 4 N 1021,2 0,0
21.06.2018 08:00:00 18,8 18,0 4 2 11 6 WNW 1021,3 -
21.06.2018 07:00:00 18,7 17,9 6 3 11 6 WNW 1021,3 0,0
21.06.2018 06:00:00 18,6 17,8 3 2 9 5 NW 1021,3 0,0
21.06.2018 05:00:00 18,8 18,0 4 2 19 10 W 1021,3 0,0
21.06.2018 04:00:00 19,0 18,2 6 3 14 8 WNW 1021,4 0,0
21.06.2018 03:00:00 18,8 18,0 7 4 18 10 WNW 1021,4 0,0
21.06.2018 02:00:00 18,8 18,0 8 5 19 10 WNW 1021,7 -
21.06.2018 01:00:00 18,9 18,1 9 5 22 12 NW 1021,9 0,0
21.06.2018 00:00:00 18,9 18,1 11 6 22 12 WNW 1021,7 0,0
20.06.2018 23:00:00 19,1 18,3 8 4 16 9 NW 1021,0 0,0
20.06.2018 22:00:00 19,3 18,3 3 2 7 4 NW 1020,5 0,0
20.06.2018 21:00:00 19,5 18,3 3 2 8 5 N 1019,8 0,0
20.06.2018 20:00:00 20,0 18,7 5 3 12 7 NW 1019,6 -
20.06.2018 19:00:00 20,4 18,9 7 4 11 6 WNW 1019,1 0,0
20.06.2018 18:00:00 21,0 19,1 7 4 14 8 NNW 1019,5 0,0
20.06.2018 17:00:00 21,3 18,8 7 4 15 8 N 1019,6 0,0
20.06.2018 16:00:00 21,5 18,8 9 5 16 8 NNW 1019,5 0,0
20.06.2018 15:00:00 21,1 19,1 9 5 15 8 N 1019,4 0,0
20.06.2018 14:00:00 20,9 18,8 8 4 14 8 N 1019,5 -
20.06.2018 13:00:00 20,9 19,0 8 4 13 7 N 1019,8 0,0
20.06.2018 12:00:00 20,5 18,8 7 4 10 6 N 1019,8 0,0
20.06.2018 11:00:00 19,5 18,0 5 3 9 5 NNE 1019,7 0,0
20.06.2018 10:00:00 18,7 17,7 5 3 9 5 WNW 1019,8 0,0
20.06.2018 09:00:00 18,2 17,2 4 2 8 4 WNW 1019,8 0,0
20.06.2018 08:00:00 17,8 17,1 2 1 4 2 S 1019,2 -
20.06.2018 07:00:00 15,8 15,0 0 0 9 5 N 1018,8 0,0
20.06.2018 06:00:00 15,7 14,9 6 3 - - S 1018,9 -
20.06.2018 05:00:00 15,7 14,9 6 3 8 5 S 1019,2 0,0
20.06.2018 04:00:00 15,8 15,0 4 2 7 4 S 1019,4 0,0
20.06.2018 03:00:00 16,3 15,3 5 3 6 4 S 1019,9 0,0
20.06.2018 02:00:00 16,9 15,6 4 2 6 3 SSE 1020,5 -
20.06.2018 01:00:00 17,3 15,8 4 2 6 4 SSE 1021,0 0,0
20.06.2018 00:00:00 18,1 16,4 3 2 7 4 SE 1021,4 0,0
19.06.2018 23:00:00 18,4 16,7 3 2 9 5 SSE 1021,7 0,0
19.06.2018 22:00:00 18,4 16,6 5 3 16 9 ESE 1021,4 0,0
19.06.2018 21:00:00 18,8 17,0 7 4 19 10 E 1021,4 0,0
19.06.2018 20:00:00 19,7 17,3 10 6 21 12 NE 1021,7 -
19.06.2018 19:00:00 19,2 17,0 13 7 24 13 ENE 1021,9 0,0
19.06.2018 18:00:00 19,8 17,4 14 8 24 13 NE 1022,7 0,0
19.06.2018 17:00:00 19,9 16,9 13 7 24 13 ENE 1023,2 0,0
19.06.2018 16:00:00 18,7 16,6 14 8 24 13 ENE 1023,7 0,0
19.06.2018 15:00:00 18,2 17,1 12 6 21 11 NE 1024,2 0,0
19.06.2018 14:00:00 18,5 17,7 5 3 9 5 N 1024,6 -
19.06.2018 13:00:00 17,4 16,7 5 3 9 5 N 1025,1 0,0
19.06.2018 12:00:00 17,0 16,4 4 2 8 4 WNW 1025,4 0,0
19.06.2018 11:00:00 16,1 15,4 5 3 8 4 WNW 1026,0 0,0
19.06.2018 10:00:00 16,1 15,4 3 1 6 3 WNW 1026,3 0,4
19.06.2018 09:00:00 16,2 15,5 0 0 4 2 N 1026,6 0,5
19.06.2018 08:00:00 16,1 15,4 1 1 5 3 WSW 1026,4 -
19.06.2018 07:00:00 15,6 15,0 3 1 7 4 S 1026,3 0,0
19.06.2018 06:00:00 15,7 15,3 4 2 6 3 S 1026,4 0,0
19.06.2018 05:00:00 15,9 15,3 2 1 5 3 W 1026,5 0,0
19.06.2018 04:00:00 15,5 14,9 2 1 16 9 NE 1026,9 0,0
19.06.2018 03:00:00 16,0 15,3 9 5 16 9 NE 1027,1 0,0
19.06.2018 02:00:00 16,1 15,4 8 4 18 10 ENE 1027,6 -
19.06.2018 01:00:00 16,6 15,8 10 5 16 9 NE 1027,9 0,0
19.06.2018 00:00:00 16,7 15,7 6 3 11 6 NE 1028,3 0,0
18.06.2018 23:00:00 17,0 16,0 3 1 16 8 NE 1028,1 0,0
18.06.2018 22:00:00 17,1 16,0 3 1 11 6 WNW 1027,9 0,0
18.06.2018 21:00:00 17,3 16,1 5 3 9 5 W 1027,8 0,0
18.06.2018 20:00:00 17,2 16,4 6 3 11 6 W 1027,8 -
18.06.2018 19:00:00 17,5 16,7 4 2 15 8 WNW 1028,2 0,0
18.06.2018 18:00:00 16,9 16,2 9 5 29 15 NNE 1028,4 0,0
18.06.2018 17:00:00 17,6 16,8 8 5 25 13 NNW 1028,2 0,0
18.06.2018 16:00:00 18,5 17,1 10 6 22 12 WNW 1028,2 0,0
18.06.2018 15:00:00 19,0 17,1 9 5 23 12 NNW 1028,1 0,0
18.06.2018 14:00:00 19,3 17,3 10 5 16 9 NW 1028,0 -
18.06.2018 13:00:00 18,0 17,1 5 3 17 9 WNW 1028,2 0,0
18.06.2018 12:00:00 18,2 15,3 8 4 17 9 NW 1028,5 0,0
18.06.2018 11:00:00 18,8 15,4 6 3 14 8 WNW 1028,4 0,0
18.06.2018 10:00:00 17,5 15,5 7 4 12 6 WNW 1028,5 0,0
18.06.2018 09:00:00 16,3 15,2 1 1 11 6 SE 1028,3 0,0
18.06.2018 08:00:00 14,6 13,7 6 4 11 6 SSE 1028,1 -
18.06.2018 07:00:00 14,2 13,3 8 4 11 6 SSE 1027,8 0,0
18.06.2018 06:00:00 14,3 13,4 8 4 13 7 SSE 1027,5 0,0
18.06.2018 05:00:00 14,0 13,1 7 4 11 6 SSE 1027,5 0,0
18.06.2018 04:00:00 14,1 13,2 6 4 11 6 S 1027,7 0,0
18.06.2018 03:00:00 13,8 12,8 6 4 9 5 SSE 1027,7 0,0
18.06.2018 02:00:00 14,1 13,0 5 3 9 5 S 1027,9 -
18.06.2018 01:00:00 14,7 13,3 4 2 8 4 SSE 1027,9 0,0
18.06.2018 00:00:00 15,3 13,4 1 1 5 3 SE 1028,2 0,0
17.06.2018 23:00:00 16,1 13,4 0 0 4 2 N 1027,7 0,0
17.06.2018 22:00:00 17,1 13,3 1 1 7 4 WNW 1027,7 0,0
17.06.2018 21:00:00 19,0 13,4 3 1 10 6 N 1027,2 0,0
17.06.2018 20:00:00 19,2 13,2 6 3 10 5 N 1026,9 -
17.06.2018 19:00:00 19,6 13,8 6 3 15 8 N 1026,9 0,0
17.06.2018 18:00:00 19,8 14,1 7 4 16 8 N 1026,8 0,0
17.06.2018 17:00:00 20,0 14,3 9 5 16 8 NNE 1026,6 0,0
17.06.2018 16:00:00 19,6 14,2 9 5 16 9 N 1026,6 0,0
17.06.2018 15:00:00 19,7 14,7 8 4 15 8 N 1026,4 0,0
17.06.2018 14:00:00 19,2 14,6 8 4 15 8 N 1026,6 -
17.06.2018 13:00:00 19,8 15,6 9 5 17 9 NNE 1026,3 0,0
17.06.2018 12:00:00 19,2 16,0 8 5 16 9 NW 1026,6 0,0
17.06.2018 11:00:00 18,5 15,2 8 4 14 7 NW 1026,4 0,0
17.06.2018 10:00:00 17,5 15,0 6 3 14 8 W 1026,2 0,0
17.06.2018 09:00:00 16,9 14,7 6 3 13 7 W 1025,7 0,0
17.06.2018 08:00:00 16,3 14,8 3 2 9 5 S 1025,4 -
17.06.2018 07:00:00 16,1 14,2 5 3 12 6 WNW 1024,8 0,0
17.06.2018 06:00:00 16,1 14,6 5 3 13 7 W 1024,3 0,0
17.06.2018 05:00:00 15,4 14,1 3 1 6 3 S 1024,3 0,0
17.06.2018 04:00:00 15,3 14,0 4 2 8 4 S 1024,3 0,0
17.06.2018 03:00:00 15,4 13,8 4 2 6 4 S 1024,5 0,0
17.06.2018 02:00:00 16,3 13,9 1 1 3 2 WSW 1024,6 -
17.06.2018 01:00:00 16,4 13,5 1 1 8 4 WNW 1024,7 0,0
17.06.2018 00:00:00 16,8 13,9 3 2 8 4 NW 1024,8 0,0
16.06.2018 23:00:00 16,9 13,9 4 2 12 7 N 1024,6 0,0
16.06.2018 22:00:00 17,0 13,9 2 1 11 6 N 1023,7 0,0
16.06.2018 21:00:00 17,4 13,8 5 3 12 7 NNW 1023,6 0,0
16.06.2018 20:00:00 17,9 14,2 5 3 16 9 NNE 1023,0 -
16.06.2018 19:00:00 18,3 14,6 9 5 18 10 NNE 1022,9 0,0

tt = Température de l'air
td = dewpoint
ff = Vitesse du vent
fx = gusts
dd = Direction du vent
ppp = reduced air pressure
rr = Quantités de précipitations

stations d'obs. à proximité